Time;durP1;ratioP1;P1;durP2;ratioP2;P2;SDS_P1;SDS_P2;PMS_P1;PMS_P2;Temp;Humidity;BMP_temperature;BMP_pressure;BME280_temperature;BME280_humidity;BME280_pressure;Samples;Min_cycle;Max_cycle;Signal;HPM_P1;HPM_P2
2022/08/25 00:01:23;;;;;;;2.28;1.70;;;19.60;99.90;;;;;;4966070;28;20138;-67
2022/08/25 00:03:49;;;;;;;3.70;1.80;;;19.60;99.90;;;;;;4970030;28;20026;-67
2022/08/25 00:06:15;;;;;;;1.70;1.40;;;19.50;99.90;;;;;;4968534;28;20479;-67
2022/08/25 00:08:41;;;;;;;5.85;2.35;;;19.50;99.90;;;;;;4969314;28;20019;-67
2022/08/25 00:11:16;;;;;;;3.03;1.70;;;19.50;99.90;;;;;;4965807;28;20030;-65
2022/08/25 00:13:45;;;;;;;2.65;1.98;;;19.60;99.90;;;;;;4969239;28;20474;-67
2022/08/25 00:16:12;;;;;;;2.28;1.85;;;19.60;99.90;;;;;;4967879;28;20031;-67
2022/08/25 00:18:39;;;;;;;3.13;1.58;;;19.60;99.90;;;;;;4970188;28;20084;-66
2022/08/25 00:21:06;;;;;;;3.42;2.15;;;19.60;99.90;;;;;;4968039;28;20051;-67
2022/08/25 00:23:32;;;;;;;3.25;2.10;;;19.60;99.90;;;;;;4969120;28;20027;-66
2022/08/25 00:25:58;;;;;;;2.20;1.70;;;19.50;99.90;;;;;;4969384;28;20031;-67
2022/08/25 00:28:24;;;;;;;3.20;2.03;;;19.60;99.90;;;;;;4963838;28;20042;-67
2022/08/25 00:30:50;;;;;;;2.35;2.03;;;19.60;99.90;;;;;;4970066;28;20026;-67
2022/08/25 00:33:16;;;;;;;3.28;2.08;;;19.70;99.90;;;;;;4967808;28;20039;-67
2022/08/25 00:35:43;;;;;;;3.30;1.70;;;19.80;99.90;;;;;;4967930;28;20093;-67
2022/08/25 00:38:11;;;;;;;8.13;2.30;;;19.90;99.90;;;;;;4966682;28;20042;-66
2022/08/25 00:40:38;;;;;;;2.80;2.10;;;19.90;99.90;;;;;;4969324;28;20515;-67
2022/08/25 00:43:05;;;;;;;5.35;2.17;;;19.90;99.90;;;;;;4961034;28;20125;-67
2022/08/25 00:45:31;;;;;;;3.17;1.73;;;19.90;99.90;;;;;;4969297;28;20042;-67
2022/08/25 00:47:57;;;;;;;2.47;2.05;;;20.00;99.90;;;;;;4970497;28;20027;-67
2022/08/25 00:50:24;;;;;;;5.32;2.60;;;20.00;99.90;;;;;;4966997;28;20062;-66
2022/08/25 00:52:52;;;;;;;2.90;2.60;;;20.10;99.90;;;;;;4966983;28;20110;-66
2022/08/25 00:55:24;;;;;;;7.28;2.40;;;20.10;99.90;;;;;;4967529;28;20038;-65
2022/08/25 00:57:57;;;;;;;2.08;1.85;;;20.20;99.90;;;;;;4964935;28;20041;-66
2022/08/25 01:00:35;;;;;;;3.63;2.25;;;20.20;99.90;;;;;;4959518;28;20050;-66
2022/08/25 01:03:01;;;;;;;2.72;1.92;;;20.20;99.90;;;;;;4964557;28;20034;-65
2022/08/25 01:05:27;;;;;;;4.63;2.60;;;20.10;99.90;;;;;;4963275;28;20035;-66
2022/08/25 01:07:54;;;;;;;2.45;2.13;;;20.10;99.90;;;;;;4969840;28;20027;-66
2022/08/25 01:10:22;;;;;;;6.85;2.78;;;20.20;99.90;;;;;;4969586;28;20027;-69
2022/08/25 01:12:49;;;;;;;3.95;2.83;;;20.20;99.90;;;;;;4975294;28;20034;-65
2022/08/25 01:15:15;;;;;;;3.83;2.63;;;20.20;99.90;;;;;;4971594;28;20030;-66
2022/08/25 01:17:51;;;;;;;3.47;2.75;;;20.20;99.90;;;;;;4973733;28;20427;-66
2022/08/25 01:20:20;;;;;;;3.00;2.22;;;20.20;99.90;;;;;;4960944;28;20792;-67
2022/08/25 01:22:47;;;;;;;4.07;2.63;;;20.20;99.90;;;;;;4963732;28;20074;-67
2022/08/25 01:25:43;;;;;;;4.78;2.53;;;20.20;99.90;;;;;;4969582;28;20058;-67
2022/08/25 01:28:09;;;;;;;3.92;2.92;;;20.30;99.90;;;;;;4976555;28;20026;-66
2022/08/25 01:30:36;;;;;;;2.92;2.35;;;20.20;99.90;;;;;;4969744;28;20471;-66
2022/08/25 01:33:07;;;;;;;5.93;3.38;;;20.20;99.90;;;;;;4971629;28;20046;-67
2022/08/25 01:35:33;;;;;;;4.15;3.00;;;20.30;99.90;;;;;;4974810;28;20561;-65
2022/08/25 01:38:01;;;;;;;3.50;2.90;;;20.20;99.90;;;;;;4971567;28;20106;-66
2022/08/25 01:40:27;;;;;;;5.05;2.75;;;20.20;99.90;;;;;;4973308;28;20393;-66
2022/08/25 01:42:53;;;;;;;5.57;3.45;;;20.20;99.90;;;;;;4973777;28;20034;-67
2022/08/25 01:45:20;;;;;;;3.60;2.90;;;20.10;99.90;;;;;;4978925;28;20980;-66
2022/08/25 01:47:46;;;;;;;8.52;4.20;;;20.10;99.90;;;;;;4980448;28;20097;-67
2022/08/25 01:50:12;;;;;;;8.95;4.00;;;20.00;99.90;;;;;;4978756;28;20038;-66
2022/08/25 01:52:54;;;;;;;5.15;3.15;;;20.10;99.90;;;;;;4973676;28;20026;-67
2022/08/25 01:55:19;;;;;;;5.43;3.17;;;20.10;99.90;;;;;;4961712;28;20023;-67
2022/08/25 01:57:45;;;;;;;4.03;3.08;;;20.10;99.90;;;;;;4965864;28;20024;-66
2022/08/25 02:00:14;;;;;;;4.45;3.42;;;20.00;99.90;;;;;;4967584;28;20084;-67
2022/08/25 02:02:41;;;;;;;5.28;3.22;;;20.00;99.90;;;;;;4974564;28;20026;-66
2022/08/25 02:05:12;;;;;;;3.90;2.90;;;20.00;99.90;;;;;;4968093;28;20130;-66
2022/08/25 02:07:39;;;;;;;4.95;3.20;;;20.00;99.90;;;;;;4968817;28;20029;-67
2022/08/25 02:10:06;;;;;;;6.47;2.80;;;20.00;99.90;;;;;;4964430;28;20043;-67
2022/08/25 02:12:33;;;;;;;5.78;3.17;;;20.00;99.90;;;;;;4963021;28;20372;-67
2022/08/25 02:15:00;;;;;;;3.20;2.33;;;20.00;99.90;;;;;;4955906;28;20071;-67
2022/08/25 02:17:27;;;;;;;6.20;2.90;;;20.00;99.90;;;;;;4959158;28;20019;-67
2022/08/25 02:19:55;;;;;;;7.45;2.78;;;20.00;99.90;;;;;;4960812;28;20074;-66
2022/08/25 02:22:21;;;;;;;3.10;2.30;;;20.00;99.90;;;;;;4952350;28;20027;-66
2022/08/25 02:24:47;;;;;;;5.05;2.80;;;20.10;99.90;;;;;;4955322;28;20072;-67
2022/08/25 02:27:13;;;;;;;4.15;3.03;;;20.10;99.90;;;;;;4955508;28;20030;-64
2022/08/25 02:29:39;;;;;;;3.28;2.33;;;20.20;99.90;;;;;;4955552;28;20502;-66
2022/08/25 02:32:05;;;;;;;4.00;2.40;;;20.20;99.90;;;;;;4955649;28;20069;-66
2022/08/25 02:34:31;;;;;;;4.90;2.53;;;20.30;99.90;;;;;;4955240;28;20398;-66
2022/08/25 02:36:57;;;;;;;2.83;2.28;;;20.30;99.90;;;;;;4955642;28;20475;-66
2022/08/25 02:39:23;;;;;;;2.95;2.30;;;20.30;99.90;;;;;;4956555;28;20054;-67
2022/08/25 02:41:49;;;;;;;5.57;2.83;;;20.30;99.90;;;;;;4948854;28;20035;-67
2022/08/25 02:44:14;;;;;;;4.25;2.67;;;20.30;99.90;;;;;;4957894;28;20418;-67
2022/08/25 02:46:40;;;;;;;3.55;2.47;;;20.30;99.90;;;;;;4956355;28;20031;-66
2022/08/25 02:49:07;;;;;;;4.32;2.97;;;20.20;99.90;;;;;;4956192;28;20028;-66
2022/08/25 02:51:33;;;;;;;4.95;3.00;;;20.20;99.90;;;;;;4954256;28;20055;-68
2022/08/25 02:54:01;;;;;;;5.93;2.60;;;20.10;99.90;;;;;;4958616;28;20034;-65
2022/08/25 02:56:28;;;;;;;6.32;2.83;;;20.00;99.90;;;;;;4954457;28;20038;-65
2022/08/25 02:58:54;;;;;;;6.20;3.03;;;20.00;99.90;;;;;;4957836;28;20390;-65
2022/08/25 03:01:20;;;;;;;4.10;2.42;;;20.00;99.90;;;;;;4956498;28;20031;-66
2022/08/25 03:03:47;;;;;;;4.32;2.60;;;19.90;99.90;;;;;;4952173;28;20039;-66
2022/08/25 03:06:17;;;;;;;3.10;2.35;;;20.00;99.90;;;;;;4961063;28;20093;-67
2022/08/25 03:08:42;;;;;;;6.10;2.47;;;19.90;99.90;;;;;;4951277;28;20027;-67
2022/08/25 03:11:09;;;;;;;3.50;2.28;;;19.90;99.90;;;;;;4954625;28;20029;-67
2022/08/25 03:13:35;;;;;;;3.28;2.65;;;19.90;99.90;;;;;;4955320;28;20026;-65
2022/08/25 03:16:03;;;;;;;3.17;2.40;;;19.90;99.90;;;;;;4956165;28;20031;-65
2022/08/25 03:18:29;;;;;;;4.05;2.40;;;19.90;99.90;;;;;;4958439;28;20100;-66
2022/08/25 03:20:54;;;;;;;3.00;2.70;;;19.90;99.90;;;;;;4959103;28;20111;-66
2022/08/25 03:23:20;;;;;;;2.70;2.25;;;19.80;99.90;;;;;;4957438;28;20043;-66
2022/08/25 03:28:31;;;;;;;2.88;2.30;;;19.80;99.90;;;;;;4954395;28;20079;-66
2022/08/25 03:30:59;;;;;;;3.00;2.00;;;19.80;99.90;;;;;;4955583;28;20063;-66
2022/08/25 03:33:28;;;;;;;3.50;2.22;;;19.70;99.90;;;;;;4956434;28;20043;-66
2022/08/25 03:35:54;;;;;;;3.08;2.05;;;19.80;99.90;;;;;;4955455;28;20035;-67
2022/08/25 03:38:21;;;;;;;3.88;1.73;;;19.70;99.90;;;;;;4952462;28;20514;-67
2022/08/25 03:40:47;;;;;;;4.25;1.80;;;19.70;99.90;;;;;;4966254;28;20112;-66
2022/08/25 03:43:14;;;;;;;2.75;1.55;;;19.70;99.90;;;;;;4969477;28;20045;-66
2022/08/25 03:45:41;;;;;;;2.03;1.70;;;19.80;99.90;;;;;;4970420;28;20023;-66
2022/08/25 03:48:07;;;;;;;1.73;1.63;;;19.80;99.90;;;;;;4969798;28;20034;-66
2022/08/25 03:50:33;;;;;;;4.30;1.80;;;19.80;99.90;;;;;;4970563;28;20093;-66
2022/08/25 03:52:58;;;;;;;3.17;1.85;;;19.70;99.90;;;;;;4971801;28;20435;-66
2022/08/25 03:55:25;;;;;;;5.10;2.00;;;19.70;99.90;;;;;;4968321;28;20031;-66
2022/08/25 03:57:52;;;;;;;4.18;2.05;;;19.70;99.90;;;;;;4970944;28;20029;-65
2022/08/25 04:00:19;;;;;;;4.85;2.05;;;19.70;99.90;;;;;;4969460;28;20395;-66
2022/08/25 04:02:45;;;;;;;1.98;1.30;;;19.80;99.90;;;;;;4971292;28;20063;-66
2022/08/25 04:08:39;;;;;;;32.33;4.10;;;19.90;99.90;;;;;;4961454;28;20041;-65
2022/08/25 04:11:12;;;;;;;17.00;4.22;;;18.50;99.90;;;;;;4966441;28;20349;-70
2022/08/25 04:13:41;;;;;;;12.07;4.05;;;18.30;99.90;;;;;;4963393;28;20550;-69
2022/08/25 04:16:18;;;;;;;11.35;3.67;;;18.20;99.90;;;;;;4961771;28;20035;-68
2022/08/25 04:18:45;;;;;;;9.60;3.78;;;18.20;99.90;;;;;;4965602;28;20046;-68
2022/08/25 04:21:11;;;;;;;8.25;3.65;;;18.20;99.90;;;;;;4960668;28;21035;-68
2022/08/25 04:23:40;;;;;;;10.15;3.83;;;18.30;99.90;;;;;;4962113;28;20059;-68
2022/08/25 04:26:11;;;;;;;7.55;2.95;;;18.20;99.90;;;;;;4962361;28;20438;-70
2022/08/25 04:28:37;;;;;;;5.75;2.10;;;18.10;99.90;;;;;;4960818;28;20027;-70
2022/08/25 04:31:11;;;;;;;8.75;2.20;;;18.00;99.90;;;;;;4967722;28;20035;-71
2022/08/25 04:33:37;;;;;;;7.32;2.40;;;17.70;99.90;;;;;;4960858;28;20097;-73
2022/08/25 04:36:08;;;;;;;11.25;2.38;;;17.70;99.90;;;;;;4962212;28;20031;-72
2022/08/25 04:38:34;;;;;;;12.85;3.35;;;17.70;99.90;;;;;;4962782;28;20018;-72
2022/08/25 04:41:02;;;;;;;11.32;3.58;;;17.70;99.90;;;;;;4965466;28;20041;-73
2022/08/25 04:43:33;;;;;;;13.32;3.42;;;17.80;99.90;;;;;;4964467;28;20386;-69
2022/08/25 04:45:59;;;;;;;15.15;4.03;;;17.90;99.90;;;;;;4988301;28;20113;-70
2022/08/25 04:48:25;;;;;;;10.85;3.88;;;18.00;99.90;;;;;;4975347;28;20023;-71
2022/08/25 04:50:50;;;;;;;13.52;5.22;;;18.00;99.90;;;;;;4975596;28;20494;-72
2022/08/25 04:53:17;;;;;;;14.90;5.43;;;18.10;99.90;;;;;;4974099;28;20046;-72
2022/08/25 04:55:47;;;;;;;16.65;4.40;;;18.20;99.90;;;;;;4972973;28;20102;-71
2022/08/25 04:58:14;;;;;;;18.48;5.25;;;18.20;99.90;;;;;;4972900;28;20429;-70
2022/08/25 05:00:42;;;;;;;13.40;4.65;;;18.10;99.90;;;;;;4970276;28;20039;-72
2022/08/25 05:03:08;;;;;;;17.45;5.63;;;18.10;99.90;;;;;;4968434;28;20030;-71
2022/08/25 05:05:37;;;;;;;11.45;5.75;;;18.10;99.90;;;;;;4970479;28;20042;-70
2022/08/25 05:08:05;;;;;;;17.08;6.10;;;18.10;99.90;;;;;;4972235;28;20029;-73
2022/08/25 05:10:32;;;;;;;14.25;5.22;;;18.10;99.90;;;;;;4978897;28;20673;-72
2022/08/25 05:12:58;;;;;;;12.70;4.82;;;18.10;99.90;;;;;;4969492;28;20030;-72
2022/08/25 05:18:09;;;;;;;11.57;4.72;;;18.10;99.90;;;;;;4972979;28;20096;-73
2022/08/25 05:20:36;;;;;;;11.43;4.10;;;18.10;99.90;;;;;;4975402;28;20038;-72
2022/08/25 05:23:03;;;;;;;12.88;4.80;;;18.10;99.90;;;;;;4976260;28;20023;-71
2022/08/25 05:25:28;;;;;;;13.73;3.78;;;18.00;99.90;;;;;;4971134;28;20090;-72
2022/08/25 05:27:54;;;;;;;9.73;3.63;;;17.90;99.90;;;;;;4971517;28;20825;-73
2022/08/25 05:30:20;;;;;;;12.43;3.92;;;17.90;99.90;;;;;;4975318;28;20509;-73
2022/08/25 05:32:46;;;;;;;9.00;4.18;;;17.90;99.90;;;;;;4977835;28;20111;-73
2022/08/25 05:35:11;;;;;;;11.32;4.10;;;17.90;99.90;;;;;;4977063;28;20065;-72
2022/08/25 05:37:37;;;;;;;14.55;5.10;;;18.00;99.90;;;;;;4979562;28;20034;-73
2022/08/25 05:40:05;;;;;;;14.85;4.97;;;17.90;99.90;;;;;;4977448;28;20136;-72
2022/08/25 05:42:30;;;;;;;7.88;4.22;;;17.90;99.90;;;;;;4975077;28;20395;-72
2022/08/25 05:44:56;;;;;;;6.97;4.07;;;17.90;99.90;;;;;;4977973;28;20033;-72
2022/08/25 05:47:22;;;;;;;8.82;3.92;;;17.90;99.90;;;;;;4980662;28;20038;-73
2022/08/25 05:49:47;;;;;;;12.05;4.25;;;17.80;99.90;;;;;;4973083;28;20497;-73
2022/08/25 05:52:13;;;;;;;7.10;3.60;;;17.80;99.90;;;;;;4976756;28;20037;-74
2022/08/25 05:54:38;;;;;;;12.50;4.00;;;17.80;99.90;;;;;;4980923;28;20510;-74
2022/08/25 05:57:05;;;;;;;11.07;3.60;;;17.90;99.90;;;;;;4974484;28;20038;-73
2022/08/25 05:59:31;;;;;;;10.52;3.90;;;18.00;99.90;;;;;;4977939;28;20093;-72
2022/08/25 06:02:57;;;;;;;15.85;3.88;;;17.90;99.90;;;;;;4982112;28;20038;-71
2022/08/25 06:04:51;;;;;;;9.65;3.05;;;18.00;99.90;;;;;;4962719;28;20035;-71
2022/08/25 06:07:17;;;;;;;8.30;2.90;;;17.90;99.90;;;;;;4975260;28;20398;-71
2022/08/25 06:09:44;;;;;;;7.43;2.90;;;18.00;99.90;;;;;;4985465;28;20031;-72
2022/08/25 06:12:10;;;;;;;19.40;7.35;;;17.90;99.90;;;;;;4976527;28;20058;-71
2022/08/25 06:14:36;;;;;;;25.00;5.40;;;18.00;99.90;;;;;;4978816;28;20065;-72
2022/08/25 06:17:03;;;;;;;8.98;4.15;;;18.00;99.90;;;;;;4974466;28;20023;-70
2022/08/25 06:19:29;;;;;;;9.13;3.78;;;18.10;99.90;;;;;;4975484;28;20057;-71
2022/08/25 06:21:56;;;;;;;15.88;4.03;;;18.00;99.90;;;;;;4973776;28;20041;-72
2022/08/25 06:24:24;;;;;;;10.32;3.75;;;17.90;99.90;;;;;;4972734;28;20462;-70
2022/08/25 06:26:49;;;;;;;10.75;4.28;;;18.00;99.90;;;;;;4975922;28;20061;-75
2022/08/25 06:29:16;;;;;;;14.63;4.60;;;18.10;99.90;;;;;;4971171;28;20058;-71
2022/08/25 06:31:42;;;;;;;10.35;3.80;;;18.00;99.90;;;;;;4981622;28;20117;-72
2022/08/25 06:34:08;;;;;;;6.40;2.72;;;18.10;99.90;;;;;;4973670;28;20115;-71
2022/08/25 06:36:34;;;;;;;11.60;3.17;;;18.10;99.90;;;;;;4980838;28;20139;-72
2022/08/25 06:39:00;;;;;;;18.58;4.53;;;18.00;99.90;;;;;;4973514;28;20026;-71
2022/08/25 06:41:28;;;;;;;8.43;3.00;;;18.00;99.90;;;;;;4977641;28;20540;-71
2022/08/25 06:43:53;;;;;;;14.93;4.22;;;18.00;99.90;;;;;;4972324;28;20039;-70
2022/08/25 06:46:25;;;;;;;18.02;4.35;;;18.10;99.90;;;;;;4961531;28;20081;-72
2022/08/25 06:48:53;;;;;;;11.73;3.38;;;18.20;99.90;;;;;;4959038;28;20360;-73
2022/08/25 06:51:20;;;;;;;14.25;4.07;;;18.10;99.90;;;;;;4962826;28;20089;-73
2022/08/25 06:53:47;;;;;;;11.00;4.00;;;18.10;99.90;;;;;;4961972;28;20023;-73
2022/08/25 06:56:14;;;;;;;9.85;4.10;;;18.10;99.90;;;;;;4962061;28;20158;-73
2022/08/25 06:58:40;;;;;;;15.88;4.75;;;18.10;99.90;;;;;;4954284;28;20108;-73
2022/08/25 07:01:13;;;;;;;17.02;4.82;;;18.20;99.90;;;;;;4957821;28;20508;-73
2022/08/25 07:03:39;;;;;;;12.95;4.35;;;18.10;99.90;;;;;;4954684;28;20057;-73
2022/08/25 07:06:05;;;;;;;12.05;4.82;;;18.10;99.90;;;;;;4951437;28;20118;-73
2022/08/25 07:08:31;;;;;;;16.50;5.05;;;18.10;99.90;;;;;;4952921;28;20065;-73
2022/08/25 07:11:03;;;;;;;11.48;4.70;;;18.20;99.90;;;;;;4958977;28;20081;-73
2022/08/25 07:13:30;;;;;;;17.65;9.38;;;18.20;99.90;;;;;;4955115;28;20050;-75
2022/08/25 07:15:55;;;;;;;8.98;4.13;;;18.20;99.90;;;;;;4954780;28;20031;-74
2022/08/25 07:18:21;;;;;;;12.38;4.82;;;18.30;99.90;;;;;;4964465;28;20041;-73
2022/08/25 07:20:47;;;;;;;19.42;6.55;;;18.20;99.90;;;;;;4962580;28;21682;-73
2022/08/25 07:23:13;;;;;;;13.38;4.18;;;18.20;99.90;;;;;;4959629;28;20031;-73
2022/08/25 07:25:38;;;;;;;14.15;5.32;;;18.30;99.90;;;;;;4964541;28;20031;-74
2022/08/25 07:28:04;;;;;;;14.32;4.82;;;18.30;99.90;;;;;;4956768;28;20027;-72
2022/08/25 07:30:30;;;;;;;14.98;5.28;;;18.30;99.90;;;;;;4955093;28;20081;-71
2022/08/25 07:32:56;;;;;;;10.25;4.30;;;18.30;99.90;;;;;;4960227;28;20039;-71
2022/08/25 07:35:24;;;;;;;10.02;4.13;;;18.40;99.90;;;;;;4957814;28;20427;-71
2022/08/25 07:37:56;;;;;;;10.50;4.40;;;18.40;99.90;;;;;;4959600;28;20035;-72
2022/08/25 07:40:28;;;;;;;8.93;3.97;;;18.30;99.90;;;;;;4958127;28;20062;-72
2022/08/25 07:42:56;;;;;;;8.75;3.97;;;18.30;99.90;;;;;;4950542;28;20031;-72
2022/08/25 07:45:29;;;;;;;13.65;4.47;;;18.30;99.90;;;;;;4954790;28;20038;-73
2022/08/25 07:48:08;;;;;;;14.88;4.57;;;18.30;99.90;;;;;;4963042;28;20110;-75
2022/08/25 07:50:37;;;;;;;10.27;3.75;;;18.30;99.90;;;;;;4956792;28;20573;-72
2022/08/25 07:53:04;;;;;;;11.90;3.83;;;18.30;99.90;;;;;;4954689;28;20023;-72
2022/08/25 07:55:31;;;;;;;9.07;4.95;;;18.20;99.90;;;;;;4954594;28;20030;-72
2022/08/25 07:57:58;;;;;;;12.10;3.90;;;18.20;99.90;;;;;;4948406;28;20031;-74
2022/08/25 08:00:28;;;;;;;11.00;4.38;;;18.30;99.90;;;;;;4958538;28;20487;-72
2022/08/25 08:02:55;;;;;;;9.35;3.60;;;18.30;99.90;;;;;;4966117;28;20033;-71
2022/08/25 08:05:22;;;;;;;12.23;4.18;;;18.40;99.90;;;;;;4978640;28;20481;-71
2022/08/25 08:07:48;;;;;;;10.50;3.78;;;18.30;99.90;;;;;;4966816;28;20109;-71
2022/08/25 08:10:14;;;;;;;11.93;4.90;;;18.30;99.90;;;;;;4960747;28;20367;-71
2022/08/25 08:12:41;;;;;;;10.05;4.13;;;18.30;99.90;;;;;;4954567;28;20027;-70
2022/08/25 08:15:07;;;;;;;10.43;4.25;;;18.30;99.90;;;;;;4961179;28;20077;-74
2022/08/25 08:17:33;;;;;;;10.48;4.28;;;18.30;99.90;;;;;;4969801;28;20026;-72
2022/08/25 08:19:59;;;;;;;12.30;4.55;;;18.30;99.90;;;;;;4961298;28;20041;-73
2022/08/25 08:22:26;;;;;;;14.57;5.55;;;18.40;99.90;;;;;;4966465;28;20027;-71
2022/08/25 08:24:51;;;;;;;10.63;5.07;;;18.50;99.90;;;;;;4960492;28;20038;-70
2022/08/25 08:27:17;;;;;;;11.90;5.38;;;18.40;99.90;;;;;;4966089;28;20086;-72
2022/08/25 08:29:43;;;;;;;15.07;4.75;;;18.40;99.90;;;;;;4956040;28;20364;-72
2022/08/25 08:32:12;;;;;;;11.32;4.78;;;18.40;99.90;;;;;;4959682;28;20043;-71
2022/08/25 08:34:39;;;;;;;8.77;4.38;;;18.40;99.90;;;;;;4965910;28;20034;-70
2022/08/25 08:37:05;;;;;;;9.65;4.25;;;18.40;99.90;;;;;;4967123;28;20062;-71
2022/08/25 08:39:31;;;;;;;12.25;5.55;;;18.50;99.90;;;;;;4952240;28;20476;-70
2022/08/25 08:42:18;;;;;;;11.75;6.43;;;18.50;99.90;;;;;;4951544;28;20039;-69
2022/08/25 08:44:59;;;;;;;14.07;6.40;;;18.50;99.90;;;;;;4963269;28;20035;-71
2022/08/25 08:47:40;;;;;;;12.23;6.80;;;18.50;99.90;;;;;;4956152;28;20038;-71
2022/08/25 08:50:29;;;;;;;16.48;7.18;;;18.50;99.90;;;;;;4963432;28;20035;-72
2022/08/25 08:53:01;;;;;;;13.07;7.60;;;18.50;99.90;;;;;;4964576;28;20038;-68
2022/08/25 08:55:29;;;;;;;;;;;18.60;99.90;;;;;;4955786;28;20027;-74
2022/08/25 08:57:58;;;;;;;11.73;5.88;;;18.50;99.90;;;;;;4950550;28;19914;-73
2022/08/25 09:00:25;;;;;;;11.65;5.70;;;18.50;99.90;;;;;;4960347;28;20030;-71
2022/08/25 09:03:15;;;;;;;16.55;6.40;;;18.60;99.90;;;;;;4956527;28;20090;-73
2022/08/25 09:05:47;;;;;;;14.75;5.72;;;18.60;99.90;;;;;;4961216;28;20038;-73
2022/08/25 09:08:14;;;;;;;19.85;8.63;;;18.60;99.90;;;;;;4966778;28;20033;-74
2022/08/25 09:10:52;;;;;;;24.60;9.80;;;18.70;99.90;;;;;;4957153;28;20038;-73
2022/08/25 09:13:38;;;;;;;21.55;11.68;;;18.70;99.90;;;;;;4965333;28;20034;-74
2022/08/25 09:19:19;;;;;;;24.83;13.13;;;18.70;99.90;;;;;;4965355;28;20176;-70
2022/08/25 09:22:12;;;;;;;22.73;13.15;;;18.70;99.90;;;;;;4960875;28;20555;-72
2022/08/25 09:25:07;;;;;;;30.58;14.30;;;18.60;99.90;;;;;;4966761;28;20035;-72
2022/08/25 09:27:50;;;;;;;21.45;13.18;;;18.70;99.90;;;;;;4964885;28;20059;-68
2022/08/25 09:30:18;;;;;;;26.27;13.05;;;18.80;99.90;;;;;;4963806;28;20035;-61
2022/08/25 09:32:47;;;;;;;15.13;10.10;;;18.90;99.90;;;;;;4968142;28;20368;-62
2022/08/25 09:35:24;;;;;;;15.20;8.00;;;18.90;99.90;;;;;;4969809;28;20030;-62
2022/08/25 09:38:03;;;;;;;15.25;7.38;;;18.90;99.90;;;;;;4972962;28;20050;-61
2022/08/25 09:40:32;;;;;;;12.00;7.18;;;18.90;99.90;;;;;;4968326;28;20090;-62
2022/08/25 09:43:04;;;;;;;17.52;7.70;;;18.90;99.90;;;;;;4969828;28;20086;-62
2022/08/25 09:45:44;;;;;;;14.10;8.27;;;19.00;99.90;;;;;;4964858;28;20027;-61
2022/08/25 09:48:29;;;;;;;10.88;7.15;;;19.10;99.90;;;;;;4960803;28;20026;-60
2022/08/25 09:51:24;;;;;;;10.05;7.15;;;19.10;99.90;;;;;;4963167;28;20031;-61
2022/08/25 09:53:58;;;;;;;11.48;5.65;;;19.00;99.90;;;;;;4963403;28;20035;-59
2022/08/25 09:56:27;;;;;;;7.45;5.60;;;19.10;99.90;;;;;;4964631;28;20387;-60
2022/08/25 09:58:56;;;;;;;10.05;6.15;;;19.10;99.90;;;;;;4960704;28;20025;-61
2022/08/25 10:01:22;;;;;;;10.13;6.30;;;19.20;99.90;;;;;;4957828;28;20039;-60
2022/08/25 10:03:59;;;;;;;12.32;6.50;;;19.30;99.90;;;;;;4957268;28;20375;-60
2022/08/25 10:06:29;;;;;;;16.25;6.78;;;19.50;99.90;;;;;;4957324;28;20046;-60
2022/08/25 10:08:59;;;;;;;8.35;5.72;;;19.50;99.90;;;;;;4956881;28;20562;-60
2022/08/25 10:11:47;;;;;;;14.82;6.03;;;19.50;99.90;;;;;;4963997;28;20027;-60
2022/08/25 10:14:34;;;;;;;14.45;6.28;;;19.60;99.90;;;;;;4962653;28;20093;-60
2022/08/25 10:17:29;;;;;;;8.68;5.03;;;19.60;99.90;;;;;;4960988;28;20035;-60
2022/08/25 10:20:19;;;;;;;10.50;5.70;;;19.60;99.90;;;;;;4953924;28;20035;-59
2022/08/25 10:22:46;;;;;;;11.02;5.40;;;19.60;99.90;;;;;;4959149;28;20039;-59
2022/08/25 10:25:15;;;;;;;14.75;5.60;;;19.60;99.90;;;;;;4961726;28;20122;-60
2022/08/25 10:27:46;;;;;;;6.85;5.00;;;19.60;99.90;;;;;;4953794;28;20229;-58
2022/08/25 10:30:34;;;;;;;11.05;6.63;;;19.70;99.90;;;;;;4957838;28;20054;-59
2022/08/25 10:33:18;;;;;;;12.85;5.50;;;19.80;99.90;;;;;;4961525;28;20122;-59
2022/08/25 10:35:56;;;;;;;8.38;4.40;;;19.90;99.90;;;;;;4964474;28;20487;-60
2022/08/25 10:38:43;;;;;;;9.55;4.97;;;19.80;99.90;;;;;;4963070;28;20022;-59
2022/08/25 10:41:24;;;;;;;9.02;5.25;;;19.80;99.90;;;;;;4962357;28;20058;-59
2022/08/25 10:47:22;;;;;;;7.97;4.97;;;19.90;99.90;;;;;;4969454;28;20053;-59
2022/08/25 10:49:56;;;;;;;8.23;4.95;;;20.00;99.90;;;;;;4965999;28;20033;-59
2022/08/25 10:52:38;;;;;;;6.45;4.80;;;20.10;99.90;;;;;;4959983;28;20815;-59
2022/08/25 10:55:11;;;;;;;9.32;5.53;;;20.10;99.90;;;;;;4978431;28;20030;-59
2022/08/25 10:57:45;;;;;;;9.07;6.80;;;20.10;99.90;;;;;;4977001;28;20029;-59
2022/08/25 11:00:21;;;;;;;11.70;7.20;;;20.30;99.90;;;;;;4968022;28;20585;-61
2022/08/25 11:03:21;;;;;;;11.00;8.07;;;20.40;99.90;;;;;;4962630;28;21095;-61
2022/08/25 11:05:57;;;;;;;10.38;7.90;;;20.40;99.90;;;;;;4956285;28;20122;-59
2022/08/25 11:08:41;;;;;;;12.00;8.02;;;20.50;99.90;;;;;;4958044;28;20074;-60
2022/08/25 11:11:20;;;;;;;7.55;5.30;;;20.60;99.90;;;;;;4967540;28;20038;-59
2022/08/25 11:13:56;;;;;;;6.90;4.68;;;20.50;99.90;;;;;;4971922;28;20027;-60
2022/08/25 11:16:44;;;;;;;4.72;3.63;;;20.60;99.90;;;;;;4969692;28;20481;-61
2022/08/25 11:19:13;;;;;;;11.32;4.13;;;20.60;99.90;;;;;;4967636;28;20031;-60
2022/08/25 11:22:01;;;;;;;9.02;3.05;;;20.60;99.90;;;;;;4970867;28;20035;-60
2022/08/25 11:24:45;;;;;;;4.15;3.50;;;20.60;99.90;;;;;;4971633;28;20030;-60
2022/08/25 11:27:18;;;;;;;6.97;4.57;;;20.60;99.90;;;;;;4964535;28;20038;-60
2022/08/25 11:29:58;;;;;;;7.35;4.43;;;20.70;99.90;;;;;;4963299;28;20107;-60
2022/08/25 11:32:24;;;;;;;8.15;4.97;;;20.80;99.90;;;;;;4961793;28;20057;-61
2022/08/25 11:34:51;;;;;;;10.00;4.72;;;21.30;99.90;;;;;;4970987;28;20042;-61
2022/08/25 11:37:26;;;;;;;8.27;5.55;;;21.50;99.90;;;;;;4969688;28;20081;-60
2022/08/25 11:40:10;;;;;;;7.82;5.50;;;21.60;99.90;;;;;;4970734;28;20039;-59
2022/08/25 11:42:54;;;;;;;8.00;4.63;;;21.80;99.90;;;;;;4966529;28;20498;-60
2022/08/25 11:45:38;;;;;;;7.20;4.57;;;21.70;99.90;;;;;;4970021;28;20097;-60
2022/08/25 11:48:07;;;;;;;3.33;2.60;;;21.80;99.90;;;;;;4969815;28;20041;-59
2022/08/25 11:50:57;;;;;;;4.90;2.67;;;21.70;99.90;;;;;;4970593;28;20069;-60
2022/08/25 11:53:43;;;;;;;7.82;3.45;;;21.80;99.90;;;;;;4962472;28;20034;-60
2022/08/25 11:56:12;;;;;;;8.00;3.88;;;21.80;99.90;;;;;;4959315;28;20058;-59
2022/08/25 11:58:50;;;;;;;5.40;3.60;;;21.60;99.90;;;;;;4970376;28;20023;-59
2022/08/25 12:01:34;;;;;;;4.38;3.05;;;21.70;99.90;;;;;;4968820;28;20035;-59
2022/08/25 12:04:29;;;;;;;5.50;3.60;;;21.70;99.90;;;;;;4969924;28;20085;-59
2022/08/25 12:07:09;;;;;;;1.83;1.40;;;21.70;99.90;;;;;;4969957;28;20085;-60
2022/08/25 12:09:50;;;;;;;3.22;1.42;;;21.80;99.90;;;;;;4969792;28;20038;-60
2022/08/25 12:12:34;;;;;;;7.40;1.33;;;22.10;99.90;;;;;;4968972;28;20517;-60
2022/08/25 12:15:33;;;;;;;3.65;1.85;;;22.40;99.90;;;;;;4970176;28;20035;-60
2022/08/25 12:18:39;;;;;;;2.65;1.02;;;22.50;99.90;;;;;;4969779;28;20043;-60
2022/08/25 12:21:04;;;;;;;2.10;1.23;;;22.70;99.90;;;;;;4968675;28;20042;-60
2022/08/25 12:24:05;;;;;;;3.00;2.20;;;22.70;99.90;;;;;;4970812;28;20039;-60
2022/08/25 12:27:00;;;;;;;4.60;2.10;;;22.50;99.90;;;;;;4969431;28;20443;-60
2022/08/25 12:29:25;;;;;;;7.60;2.53;;;22.60;99.90;;;;;;4953550;28;20039;-60
2022/08/25 12:31:57;;;;;;;7.40;2.97;;;22.60;99.90;;;;;;4966736;28;20026;-60
2022/08/25 12:34:49;;;;;;;2.00;1.30;;;22.40;99.90;;;;;;4968860;28;20506;-59
2022/08/25 12:37:17;;;;;;;3.57;1.50;;;22.60;99.90;;;;;;4968850;28;20117;-59
2022/08/25 12:39:49;;;;;;;3.47;1.20;;;23.00;99.90;;;;;;4968321;28;20305;-59
2022/08/25 12:42:33;;;;;;;;;;;23.60;99.90;;;;;;4967414;28;20153;-59
2022/08/25 12:45:24;;;;;;;0.88;0.80;;;24.20;99.90;;;;;;4970358;28;19910;-60
2022/08/25 12:47:52;;;;;;;0.57;0.40;;;25.40;99.90;;;;;;4965294;28;20471;-59
2022/08/25 12:50:33;;;;;;;3.05;0.98;;;25.80;99.90;;;;;;4964655;28;20046;-58
2022/08/25 12:53:10;;;;;;;1.00;0.70;;;25.80;99.90;;;;;;4969019;28;20081;-59
2022/08/25 12:55:38;;;;;;;1.55;0.70;;;25.40;99.90;;;;;;4970184;28;20447;-58
2022/08/25 12:58:05;;;;;;;1.05;0.70;;;24.90;99.90;;;;;;4968304;28;20042;-58
2022/08/25 13:01:08;;;;;;;3.78;1.17;;;25.20;99.90;;;;;;4968622;28;20063;-58
2022/08/25 13:04:10;;;;;;;0.75;0.65;;;25.20;99.90;;;;;;4970177;28;20129;-59
2022/08/25 13:06:56;;;;;;;1.65;0.68;;;24.90;99.90;;;;;;4960000;28;20042;-59
2022/08/25 13:09:31;;;;;;;0.95;0.55;;;24.90;99.90;;;;;;4968863;28;20287;-59
2022/08/25 13:12:15;;;;;;;1.48;0.68;;;25.20;99.90;;;;;;4969936;28;20475;-59
2022/08/25 13:14:42;;;;;;;1.45;0.60;;;25.80;99.90;;;;;;4969224;28;20039;-59
2022/08/25 13:17:08;;;;;;;3.22;0.80;;;26.00;99.90;;;;;;4968826;28;20031;-59
2022/08/25 13:19:35;;;;;;;1.40;1.00;;;26.40;99.90;;;;;;4969756;28;20490;-59